Time;durP1;ratioP1;P1;durP2;ratioP2;P2;SDS_P1;SDS_P2;PMS_P1;PMS_P2;Temp;Humidity;BMP_temperature;BMP_pressure;BME280_temperature;BME280_humidity;BME280_pressure;Samples;Min_cycle;Max_cycle;Signal;HPM_P1;HPM_P2
2022/11/23 00:01:57;;;;;;;0.70;0.70;;;3.80;99.90;2.80;94617.00;;;;5093756;28;20226;-64
2022/11/23 00:04:24;;;;;;;0.60;0.60;;;3.50;99.90;2.70;94617.00;;;;5093856;28;20226;-62
2022/11/23 00:06:51;;;;;;;0.50;0.50;;;3.70;99.90;2.70;94608.00;;;;5094196;28;20279;-62
2022/11/23 00:09:17;;;;;;;0.87;0.87;;;3.60;99.90;2.70;94608.00;;;;5093707;28;20218;-62
2022/11/23 00:11:45;;;;;;;0.93;0.93;;;3.70;99.90;2.70;94606.00;;;;5093919;28;20662;-62
2022/11/23 00:14:11;;;;;;;0.73;0.73;;;3.60;99.90;2.70;94607.00;;;;5093509;28;20289;-62
2022/11/23 00:16:37;;;;;;;0.70;0.70;;;3.60;99.90;2.60;94606.00;;;;5093572;28;20222;-62
2022/11/23 00:19:06;;;;;;;0.60;0.60;;;3.60;99.90;2.60;94603.00;;;;5093615;28;20651;-62
2022/11/23 00:21:35;;;;;;;0.90;0.90;;;3.60;99.90;2.50;94610.00;;;;5093290;28;20222;-62
2022/11/23 00:24:04;;;;;;;0.60;0.60;;;3.50;99.90;2.50;94615.00;;;;5093383;28;20198;-62
2022/11/23 00:26:31;;;;;;;0.60;0.60;;;3.50;99.90;2.60;94623.00;;;;5093343;28;20666;-62
2022/11/23 00:29:00;;;;;;;1.07;1.07;;;3.50;99.90;2.40;94617.00;;;;5075576;28;20205;-62
2022/11/23 00:31:26;;;;;;;0.60;0.60;;;3.40;99.90;2.40;94626.00;;;;5093615;28;20209;-62
2022/11/23 00:33:55;;;;;;;0.70;0.70;;;3.30;99.90;2.20;94624.00;;;;5093557;28;20214;-62
2022/11/23 00:36:24;;;;;;;0.77;0.77;;;3.20;99.90;2.20;94587.00;;;;5093220;28;20233;-62
2022/11/23 00:38:53;;;;;;;0.90;0.90;;;3.10;99.90;2.10;94623.00;;;;5093203;28;20233;-62
2022/11/23 00:41:22;;;;;;;1.00;1.00;;;3.10;99.90;2.00;94622.00;;;;5093176;28;20198;-62
2022/11/23 00:43:49;;;;;;;2.07;1.10;;;3.00;99.90;2.00;94613.00;;;;5075646;28;20211;-65
2022/11/23 00:46:22;;;;;;;0.60;0.60;;;3.00;99.90;1.90;94613.00;;;;5093542;28;20190;-62
2022/11/23 00:48:50;;;;;;;1.00;1.00;;;2.90;99.90;1.80;94607.00;;;;5093109;28;20203;-62
2022/11/23 00:51:21;;;;;;;0.70;0.70;;;2.90;99.90;1.80;94617.00;;;;5093038;28;20677;-62
2022/11/23 00:53:50;;;;;;;0.70;0.70;;;2.60;99.50;1.60;94621.00;;;;5075244;28;20538;-62
2022/11/23 00:56:17;;;;;;;0.80;0.80;;;2.60;99.90;1.60;94605.00;;;;5093256;28;20187;-62
2022/11/23 00:58:48;;;;;;;0.60;0.60;;;2.60;99.90;1.60;94609.00;;;;5075234;28;20206;-63
2022/11/23 01:01:21;;;;;;;0.80;0.80;;;2.60;99.90;1.60;94596.00;;;;5092943;28;20206;-62
2022/11/23 01:03:52;;;;;;;0.80;0.80;;;2.60;99.90;1.60;94605.00;;;;5092887;28;20237;-64
2022/11/23 01:06:24;;;;;;;1.07;1.07;;;2.60;99.90;1.70;94576.00;;;;5093166;28;20206;-65
2022/11/23 01:08:52;;;;;;;0.80;0.80;;;2.70;99.90;1.70;94580.00;;;;5096641;28;20206;-65
2022/11/23 01:11:20;;;;;;;1.33;1.27;;;2.60;99.90;1.60;94613.00;;;;5096663;28;20197;-65
2022/11/23 01:13:47;;;;;;;0.83;0.83;;;2.60;99.90;1.60;94604.00;;;;5096541;28;20194;-65
2022/11/23 01:16:20;;;;;;;0.90;0.90;;;2.60;99.90;1.60;94607.00;;;;5096158;28;20568;-65
2022/11/23 01:18:52;;;;;;;0.80;0.80;;;2.60;99.90;1.60;94610.00;;;;5096598;28;20627;-62
2022/11/23 01:21:21;;;;;;;1.20;1.20;;;2.50;99.90;1.60;94611.00;;;;5096383;28;20206;-62
2022/11/23 01:23:50;;;;;;;2.67;2.47;;;2.50;99.90;1.60;94603.00;;;;5096476;28;20222;-62
2022/11/23 01:26:17;;;;;;;1.03;1.03;;;2.60;99.90;1.60;94607.00;;;;5096149;28;20213;-62
2022/11/23 01:28:43;;;;;;;0.70;0.70;;;2.60;99.90;1.60;94605.00;;;;5096168;28;20236;-62
2022/11/23 01:31:13;;;;;;;0.60;0.60;;;2.60;99.90;1.60;94599.00;;;;5096107;28;20624;-62
2022/11/23 01:33:43;;;;;;;0.77;0.77;;;2.60;99.90;1.60;94609.00;;;;5096017;28;20191;-62
2022/11/23 01:36:12;;;;;;;1.60;1.50;;;2.60;99.90;1.70;94610.00;;;;5078372;28;20278;-63
2022/11/23 01:38:38;;;;;;;0.83;0.83;;;2.60;99.90;1.60;94605.00;;;;5095966;28;20277;-62
2022/11/23 01:41:06;;;;;;;1.13;1.10;;;2.70;99.90;1.70;94573.00;;;;5095866;28;20224;-62
2022/11/23 01:43:32;;;;;;;0.83;0.83;;;2.60;99.90;1.60;94616.00;;;;5095781;28;20230;-63
2022/11/23 01:46:00;;;;;;;0.60;0.60;;;2.60;99.90;1.50;94606.00;;;;5095819;28;20206;-62
2022/11/23 01:48:35;;;;;;;0.60;0.60;;;2.50;99.90;1.50;94612.00;;;;5095803;28;20330;-63
2022/11/23 01:51:11;;;;;;;0.80;0.80;;;2.60;99.90;1.60;94607.00;;;;5095805;28;20205;-65
2022/11/23 01:53:39;;;;;;;1.70;1.23;;;2.50;99.90;1.60;94616.00;;;;5095645;28;20232;-63
2022/11/23 01:56:09;;;;;;;1.00;1.00;;;2.60;99.90;1.60;94623.00;;;;5095816;28;20219;-62
2022/11/23 01:58:43;;;;;;;0.93;0.93;;;2.60;99.90;1.70;94613.00;;;;5095527;28;20229;-62
2022/11/23 02:01:13;;;;;;;0.70;0.70;;;2.70;99.90;1.70;94615.00;;;;5095711;28;20205;-62
2022/11/23 02:03:42;;;;;;;0.50;0.50;;;2.70;99.90;1.70;94617.00;;;;5095418;28;20271;-63
2022/11/23 02:06:16;;;;;;;0.80;0.80;;;2.70;99.90;1.80;94624.00;;;;5077751;28;20572;-62
2022/11/23 02:08:43;;;;;;;0.83;0.83;;;2.70;99.90;1.80;94626.00;;;;5095483;28;20193;-62
2022/11/23 02:11:12;;;;;;;0.70;0.70;;;2.70;99.90;1.70;94628.00;;;;5095414;28;20226;-63
2022/11/23 02:13:40;;;;;;;0.97;0.97;;;2.70;99.90;1.60;94631.00;;;;5095353;28;20647;-62
2022/11/23 02:16:07;;;;;;;0.70;0.70;;;2.60;99.90;1.60;94632.00;;;;5095257;28;20232;-62
2022/11/23 02:18:38;;;;;;;0.80;0.80;;;2.60;99.90;1.50;94627.00;;;;5094135;28;20507;-61
2022/11/23 02:21:04;;;;;;;0.50;0.50;;;2.50;99.90;1.60;94628.00;;;;5095537;28;20199;-63
2022/11/23 02:23:42;;;;;;;0.60;0.60;;;2.60;99.90;1.80;94631.00;;;;5095258;28;20218;-62
2022/11/23 02:26:15;;;;;;;0.50;0.50;;;2.70;99.90;1.70;94634.00;;;;5095367;28;20199;-63
2022/11/23 02:28:46;;;;;;;0.83;0.83;;;2.70;99.90;1.70;94639.00;;;;5095109;28;20215;-62
2022/11/23 02:31:15;;;;;;;0.60;0.60;;;2.60;99.90;1.70;94635.00;;;;5095256;28;20195;-63
2022/11/23 02:33:41;;;;;;;0.80;0.80;;;2.60;99.90;1.70;94623.00;;;;5095048;28;20218;-62
2022/11/23 02:36:38;;;;;;;0.60;0.60;;;2.70;99.90;1.70;94626.00;;;;5095184;28;20208;-63
2022/11/23 02:39:11;;;;;;;0.80;0.80;;;2.60;99.90;1.80;94628.00;;;;5094004;28;20630;-62
2022/11/23 02:41:42;;;;;;;1.23;1.23;;;2.70;99.90;1.80;94627.00;;;;5094926;28;20237;-60
2022/11/23 02:44:31;;;;;;;1.33;1.23;;;2.70;99.90;1.60;94633.00;;;;5094956;28;20210;-63
2022/11/23 02:46:58;;;;;;;1.10;1.10;;;2.50;99.90;1.50;94633.00;;;;5095105;28;20217;-63
2022/11/23 02:49:24;;;;;;;0.70;0.70;;;2.50;99.90;1.30;94634.00;;;;5094941;28;20221;-63
2022/11/23 02:51:51;;;;;;;0.90;0.90;;;2.30;99.90;1.40;94641.00;;;;5094957;28;20190;-64
2022/11/23 02:54:19;;;;;;;0.73;0.73;;;;;1.20;94635.00;;;;5094971;28;20198;-62
2022/11/23 02:56:46;;;;;;;2.07;0.87;;;2.20;99.40;1.10;94634.00;;;;5094747;28;20550;-63
2022/11/23 02:59:12;;;;;;;0.60;0.60;;;2.20;99.90;1.00;94625.00;;;;5094756;28;20633;-62
2022/11/23 03:01:39;;;;;;;0.70;0.70;;;2.10;99.40;0.90;94617.00;;;;5094564;28;20233;-62
2022/11/23 03:04:05;;;;;;;0.70;0.70;;;2.00;99.90;0.90;94626.00;;;;5094513;28;20232;-62
2022/11/23 03:06:32;;;;;;;1.83;1.73;;;2.00;99.90;1.00;94626.00;;;;5094522;28;20231;-63
2022/11/23 03:08:58;;;;;;;0.97;0.97;;;2.00;99.90;1.00;94623.00;;;;5093959;28;20209;-62
2022/11/23 03:11:24;;;;;;;4.07;2.00;;;2.00;99.90;1.00;94637.00;;;;5094564;28;20197;-62
2022/11/23 03:13:51;;;;;;;0.80;0.80;;;2.00;99.90;0.90;94636.00;;;;5076697;28;20557;-63
2022/11/23 03:16:18;;;;;;;1.00;0.93;;;1.80;99.90;0.80;94637.00;;;;5094580;28;20196;-62
2022/11/23 03:18:44;;;;;;;1.23;1.23;;;1.70;99.90;0.90;94633.00;;;;5094284;28;20233;-63
2022/11/23 03:21:11;;;;;;;0.70;0.70;;;1.90;99.90;1.00;94631.00;;;;5094393;28;20208;-62
2022/11/23 03:23:37;;;;;;;0.70;0.70;;;2.00;99.90;1.10;94638.00;;;;5094223;28;20342;-62
2022/11/23 03:26:04;;;;;;;3.40;1.47;;;2.10;99.90;1.10;94635.00;;;;5094293;28;20641;-62
2022/11/23 03:28:30;;;;;;;0.70;0.70;;;2.10;99.90;1.10;94638.00;;;;5094317;28;20210;-63
2022/11/23 03:30:57;;;;;;;1.13;1.13;;;2.10;99.90;1.20;94632.00;;;;5093803;28;20206;-63
2022/11/23 03:33:24;;;;;;;0.70;0.70;;;2.20;99.90;1.20;94633.00;;;;5094188;28;20194;-62
2022/11/23 03:35:50;;;;;;;0.60;0.60;;;2.20;99.90;1.20;94634.00;;;;5094088;28;20218;-62
2022/11/23 03:38:16;;;;;;;1.50;1.33;;;2.20;99.90;1.20;94634.00;;;;5094035;28;20202;-62
2022/11/23 03:40:44;;;;;;;0.60;0.60;;;2.20;99.90;1.20;94633.00;;;;5093975;28;20330;-62
2022/11/23 03:43:11;;;;;;;0.90;0.90;;;2.20;99.90;1.10;94646.00;;;;5094011;28;20230;-62
2022/11/23 03:45:38;;;;;;;1.80;1.70;;;2.20;99.90;0.90;94640.00;;;;5094175;28;20206;-63
2022/11/23 03:48:05;;;;;;;0.70;0.70;;;2.00;99.90;1.00;94634.00;;;;5093951;28;20209;-61
2022/11/23 03:50:32;;;;;;;0.73;0.73;;;2.00;99.90;1.00;94631.00;;;;5094034;28;20205;-60
2022/11/23 03:52:58;;;;;;;0.97;0.97;;;2.00;99.90;1.10;94625.00;;;;5093793;28;20227;-60
2022/11/23 03:55:25;;;;;;;0.80;0.80;;;2.10;99.90;1.00;94622.00;;;;5076139;28;20233;-60
2022/11/23 03:57:53;;;;;;;0.50;0.50;;;2.10;99.90;1.00;94631.00;;;;5093756;28;20226;-62
2022/11/23 04:00:20;;;;;;;1.07;0.97;;;2.00;99.90;0.90;94626.00;;;;5094122;28;20201;-62
2022/11/23 04:02:47;;;;;;;1.00;1.00;;;2.00;99.90;1.00;94621.00;;;;5093753;28;20257;-62
2022/11/23 04:05:14;;;;;;;0.80;0.80;;;2.00;99.90;0.90;94622.00;;;;5094009;28;20235;-62
2022/11/23 04:07:42;;;;;;;0.70;0.70;;;2.00;99.90;0.90;94627.00;;;;5076166;28;20581;-62
2022/11/23 04:10:09;;;;;;;1.97;1.70;;;1.90;99.90;0.80;94626.00;;;;5092961;28;20209;-63
2022/11/23 04:12:36;;;;;;;0.70;0.70;;;1.90;99.90;0.70;94623.00;;;;5093806;28;20217;-62
2022/11/23 04:15:06;;;;;;;0.70;0.70;;;1.80;99.90;0.80;94616.00;;;;5093559;28;20233;-62
2022/11/23 04:17:32;;;;;;;0.63;0.63;;;1.80;99.90;0.70;94622.00;;;;5093641;28;20193;-64
2022/11/23 04:19:59;;;;;;;0.77;0.77;;;1.70;99.90;0.60;94619.00;;;;5093509;28;20716;-62
2022/11/23 04:22:26;;;;;;;1.03;0.87;;;1.70;99.90;0.50;94612.00;;;;5093568;28;20221;-62
2022/11/23 04:24:52;;;;;;;0.70;0.70;;;1.70;99.90;0.60;94609.00;;;;5093588;28;20201;-62
2022/11/23 04:27:19;;;;;;;1.03;0.97;;;1.60;99.90;0.60;94615.00;;;;5075652;28;20519;-63
2022/11/23 04:29:47;;;;;;;0.83;0.83;;;1.60;99.90;0.70;94610.00;;;;5093469;28;20192;-62
2022/11/23 04:32:14;;;;;;;1.03;1.03;;;1.70;99.90;0.70;94609.00;;;;5093387;28;20232;-63
2022/11/23 04:34:42;;;;;;;0.87;0.87;;;1.60;99.90;0.50;94604.00;;;;5093417;28;20208;-65
2022/11/23 04:37:11;;;;;;;0.70;0.70;;;1.60;99.90;0.50;94606.00;;;;5093378;28;20225;-62
2022/11/23 04:39:38;;;;;;;0.73;0.73;;;1.50;99.90;0.50;94610.00;;;;5093364;28;20692;-62
2022/11/23 04:42:05;;;;;;;0.70;0.70;;;1.60;99.90;0.50;94609.00;;;;5094436;28;20225;-64
2022/11/23 04:44:31;;;;;;;1.30;1.03;;;1.60;99.90;0.60;94623.00;;;;5096901;28;20205;-62
2022/11/23 04:46:58;;;;;;;0.93;0.93;;;1.60;99.90;0.60;94608.00;;;;5096888;28;20202;-62
2022/11/23 04:49:24;;;;;;;2.77;1.53;;;1.70;99.90;0.60;94608.00;;;;5096805;28;20213;-62
2022/11/23 04:51:50;;;;;;;2.93;1.47;;;1.70;99.90;0.60;94609.00;;;;5096855;28;20200;-63
2022/11/23 04:54:17;;;;;;;0.80;0.80;;;1.70;99.90;0.60;94610.00;;;;5096940;28;20262;-62
2022/11/23 04:56:44;;;;;;;0.53;0.53;;;1.60;99.90;0.50;94620.00;;;;5096713;28;20267;-62
2022/11/23 04:59:10;;;;;;;0.80;0.80;;;1.60;99.90;0.50;94626.00;;;;5096678;28;20194;-62
2022/11/23 05:01:39;;;;;;;0.90;0.90;;;1.60;99.90;0.40;94625.00;;;;5096664;28;20189;-63
2022/11/23 05:04:08;;;;;;;0.70;0.70;;;1.40;99.90;0.40;94614.00;;;;5096626;28;20207;-63
2022/11/23 05:06:34;;;;;;;0.73;0.73;;;1.50;99.90;0.30;94624.00;;;;5096466;28;20202;-62
2022/11/23 05:09:00;;;;;;;1.33;1.23;;;1.40;99.90;0.30;94624.00;;;;5096473;28;20563;-65
2022/11/23 05:11:29;;;;;;;0.73;0.73;;;1.30;99.90;0.20;94621.00;;;;5096604;28;20545;-62
2022/11/23 05:13:56;;;;;;;0.60;0.60;;;1.30;99.90;0.10;94616.00;;;;5096323;28;20234;-62
2022/11/23 05:16:25;;;;;;;0.80;0.80;;;1.20;99.90;0.00;94616.00;;;;5096485;28;20212;-62
2022/11/23 05:18:51;;;;;;;0.70;0.70;;;1.20;99.90;0.20;94608.00;;;;5096317;28;20228;-63
2022/11/23 05:21:18;;;;;;;0.80;0.80;;;1.20;99.90;0.20;94598.00;;;;5096303;28;20203;-63
2022/11/23 05:23:44;;;;;;;0.87;0.87;;;1.20;99.90;0.30;94600.00;;;;5096015;28;20707;-61
2022/11/23 05:26:10;;;;;;;0.67;0.67;;;1.30;99.90;0.30;94609.00;;;;5096229;28;20625;-61
2022/11/23 05:28:39;;;;;;;1.13;1.03;;;1.30;99.90;0.20;94605.00;;;;5096066;28;20217;-62
2022/11/23 05:31:06;;;;;;;0.60;0.60;;;1.20;99.90;0.20;94615.00;;;;5096172;28;20521;-61
2022/11/23 05:33:35;;;;;;;1.20;1.20;;;1.20;99.90;0.20;94600.00;;;;5095939;28;20315;-61
2022/11/23 05:36:02;;;;;;;0.60;0.60;;;1.20;99.90;0.20;94611.00;;;;5096174;28;20652;-61
2022/11/23 05:38:29;;;;;;;0.70;0.70;;;1.20;99.90;0.20;94605.00;;;;5096021;28;20221;-61
2022/11/23 05:40:55;;;;;;;1.30;1.00;;;1.20;99.90;0.20;94593.00;;;;5095921;28;20238;-63
2022/11/23 05:43:22;;;;;;;0.70;0.70;;;1.20;99.90;0.10;94609.00;;;;5078028;28;20260;-61
2022/11/23 05:45:51;;;;;;;0.50;0.50;;;1.20;99.90;0.00;94605.00;;;;5095821;28;20197;-61
2022/11/23 05:48:20;;;;;;;0.50;0.50;;;1.10;99.90;0.00;94608.00;;;;5095916;28;20244;-62
2022/11/23 05:50:50;;;;;;;0.77;0.77;;;1.10;99.90;0.00;94618.00;;;;5095992;28;20177;-63
2022/11/23 05:53:16;;;;;;;0.63;0.63;;;1.10;99.90;0.00;94618.00;;;;5094586;28;20195;-62
2022/11/23 05:55:43;;;;;;;0.90;0.90;;;1.10;99.90;0.00;94615.00;;;;5095794;28;20215;-61
2022/11/23 05:58:09;;;;;;;1.50;1.40;;;1.00;99.90;0.00;94614.00;;;;5095851;28;20530;-61
2022/11/23 06:00:36;;;;;;;0.83;0.83;;;1.10;99.90;0.00;94583.00;;;;5095694;28;20196;-61
2022/11/23 06:03:03;;;;;;;0.77;0.77;;;1.10;99.90;0.00;94607.00;;;;5095873;28;20227;-61
2022/11/23 06:05:33;;;;;;;1.53;1.40;;;1.00;99.90;0.00;94610.00;;;;5094812;28;20200;-62
2022/11/23 06:07:59;;;;;;;0.87;0.87;;;1.10;99.90;0.00;94618.00;;;;5095502;28;20206;-61
2022/11/23 06:10:26;;;;;;;1.03;1.03;;;1.10;99.90;0.00;94610.00;;;;5095388;28;20558;-61
2022/11/23 06:12:53;;;;;;;1.00;1.00;;;;;-0.10;94606.00;;;;5094604;28;20502;-61
2022/11/23 06:15:19;;;;;;;3.00;2.70;;;0.90;99.90;-0.10;94619.00;;;;5095269;28;20242;-60
2022/11/23 06:17:46;;;;;;;1.07;1.07;;;1.00;99.80;-0.20;94620.00;;;;5095276;28;20300;-63
2022/11/23 06:20:12;;;;;;;0.87;0.87;;;0.90;99.70;-0.10;94617.00;;;;5095230;28;20678;-61
2022/11/23 06:22:39;;;;;;;0.87;0.87;;;0.90;99.60;-0.20;94615.00;;;;5095379;28;20220;-61
2022/11/23 06:25:09;;;;;;;2.10;1.83;;;0.90;99.90;-0.10;94616.00;;;;5095048;28;20238;-61
2022/11/23 06:27:35;;;;;;;1.00;1.00;;;0.90;99.90;-0.10;94602.00;;;;5094113;28;20204;-61
2022/11/23 06:30:02;;;;;;;1.03;1.03;;;1.00;99.90;-0.10;94611.00;;;;5095149;28;20710;-60
2022/11/23 06:32:28;;;;;;;0.90;0.90;;;0.90;99.90;-0.10;94614.00;;;;5095256;28;20195;-61
2022/11/23 06:34:55;;;;;;;1.83;1.67;;;0.90;99.90;-0.20;94612.00;;;;5094994;28;20232;-61
2022/11/23 06:37:21;;;;;;;1.27;1.00;;;0.90;99.90;-0.20;94610.00;;;;5095139;28;20195;-61
2022/11/23 06:39:48;;;;;;;0.80;0.80;;;0.70;99.90;-0.20;94607.00;;;;5095007;28;20664;-60
2022/11/23 06:42:15;;;;;;;1.70;1.13;;;0.80;99.80;-0.20;94602.00;;;;5094948;28;20241;-61
2022/11/23 06:44:43;;;;;;;6.43;1.33;;;0.80;99.90;-0.20;94601.00;;;;5094849;28;20307;-61
2022/11/23 06:47:10;;;;;;;0.80;0.80;;;0.80;99.90;-0.30;94610.00;;;;5095003;28;20186;-61
2022/11/23 06:49:36;;;;;;;0.70;0.70;;;0.80;99.90;-0.40;94614.00;;;;5094862;28;20242;-62
2022/11/23 06:52:04;;;;;;;1.10;1.00;;;0.70;99.60;-0.40;94607.00;;;;5094747;28;20633;-62
2022/11/23 06:54:30;;;;;;;0.70;0.70;;;0.70;99.90;-0.50;94618.00;;;;5094864;28;20283;-62
2022/11/23 06:56:57;;;;;;;0.77;0.77;;;0.60;99.90;-0.50;94615.00;;;;5094812;28;20203;-61
2022/11/23 06:59:24;;;;;;;0.70;0.70;;;0.60;99.90;-0.50;94622.00;;;;5094774;28;20214;-64
2022/11/23 07:01:50;;;;;;;0.80;0.80;;;0.60;99.90;-0.50;94624.00;;;;5094628;28;20199;-62
2022/11/23 07:04:17;;;;;;;1.00;1.00;;;0.70;99.90;-0.40;94625.00;;;;5093922;28;20202;-64
2022/11/23 07:06:44;;;;;;;1.27;1.20;;;0.70;99.90;-0.20;94633.00;;;;5094737;28;20220;-62
2022/11/23 07:09:10;;;;;;;0.60;0.60;;;0.70;99.90;-0.40;94624.00;;;;5094629;28;20203;-62
2022/11/23 07:11:36;;;;;;;1.20;1.20;;;0.60;99.90;-0.30;94628.00;;;;5094313;28;20230;-61
2022/11/23 07:14:06;;;;;;;0.63;0.63;;;0.90;99.90;0.00;94620.00;;;;5094174;28;20195;-61
2022/11/23 07:16:32;;;;;;;1.10;1.10;;;1.00;99.90;0.20;94629.00;;;;5094066;28;20222;-62
2022/11/23 07:18:58;;;;;;;1.13;1.13;;;1.10;99.90;0.10;94627.00;;;;5094408;28;20219;-61
2022/11/23 07:21:25;;;;;;;2.13;1.93;;;1.10;99.90;0.20;94635.00;;;;5094288;28;20235;-61
2022/11/23 07:23:54;;;;;;;2.77;2.27;;;1.20;99.90;0.20;94630.00;;;;5094361;28;20223;-63
2022/11/23 07:26:22;;;;;;;2.97;2.23;;;0.80;99.90;0.10;94642.00;;;;5094445;28;20739;-64
2022/11/23 07:28:49;;;;;;;3.33;3.13;;;1.10;99.90;0.10;94641.00;;;;5094462;28;20557;-63
2022/11/23 07:31:16;;;;;;;7.13;4.70;;;1.10;99.30;0.00;94632.00;;;;5094595;28;20345;-62
2022/11/23 07:33:45;;;;;;;5.97;4.57;;;1.10;99.40;0.10;94646.00;;;;5094529;28;20205;-65
2022/11/23 07:36:12;;;;;;;11.97;9.53;;;1.10;99.90;0.10;94641.00;;;;5094488;28;20664;-63
2022/11/23 07:38:41;;;;;;;12.33;8.13;;;1.10;99.60;0.20;94636.00;;;;5094204;28;20204;-62
2022/11/23 07:41:08;;;;;;;11.80;6.80;;;1.10;99.50;0.20;94626.00;;;;5094045;28;20230;-63
2022/11/23 07:43:34;;;;;;;11.80;7.93;;;1.20;98.50;0.20;94631.00;;;;5094247;28;20280;-61
2022/11/23 07:46:00;;;;;;;7.57;4.87;;;1.20;99.10;0.30;94630.00;;;;5092915;28;20264;-61
2022/11/23 07:48:28;;;;;;;5.90;4.10;;;;;0.30;94649.00;;;;5094116;28;20201;-62
2022/11/23 07:50:54;;;;;;;2.77;2.57;;;1.30;97.90;0.30;94632.00;;;;5076047;28;20205;-63
2022/11/23 07:53:23;;;;;;;3.73;3.43;;;1.30;97.80;0.30;94638.00;;;;5093955;28;20205;-64
2022/11/23 07:55:56;;;;;;;2.57;2.37;;;1.30;97.90;0.40;94631.00;;;;5093755;28;20213;-64
2022/11/23 07:58:23;;;;;;;4.00;2.60;;;1.40;97.70;0.40;94629.00;;;;5093755;28;20211;-64
2022/11/23 08:00:49;;;;;;;4.60;2.03;;;1.30;97.50;0.40;94648.00;;;;5094115;28;20302;-64
2022/11/23 08:03:16;;;;;;;1.30;1.20;;;1.30;97.30;0.30;94650.00;;;;5093629;28;20361;-63
2022/11/23 08:05:43;;;;;;;2.60;2.23;;;1.40;97.50;0.50;94635.00;;;;5093747;28;20614;-60
2022/11/23 08:08:10;;;;;;;1.87;1.77;;;1.40;98.00;0.50;94644.00;;;;5075902;28;20728;-62
2022/11/23 08:10:39;;;;;;;2.40;2.20;;;1.50;97.30;0.60;94650.00;;;;5093716;28;20205;-61
2022/11/23 08:13:06;;;;;;;4.27;3.90;;;1.60;97.40;0.70;94651.00;;;;5093583;28;20661;-61
2022/11/23 08:15:33;;;;;;;2.33;2.13;;;1.70;97.50;0.70;94634.00;;;;5093565;28;20202;-61
2022/11/23 08:18:02;;;;;;;1.67;1.57;;;1.70;97.50;0.80;94643.00;;;;5093562;28;20196;-61
2022/11/23 08:20:30;;;;;;;3.10;2.80;;;1.80;97.60;1.00;94642.00;;;;5093596;28;20200;-61
2022/11/23 08:22:57;;;;;;;16.40;4.23;;;1.90;97.50;1.10;94646.00;;;;5093550;28;20225;-61
2022/11/23 08:25:25;;;;;;;3.00;2.17;;;2.00;97.50;1.10;94645.00;;;;5093468;28;20243;-61
2022/11/23 08:27:55;;;;;;;2.43;2.23;;;2.00;98.00;1.20;94639.00;;;;5093491;28;20255;-61
2022/11/23 08:30:21;;;;;;;3.97;3.43;;;2.20;99.90;1.40;94646.00;;;;5093399;28;20234;-61
2022/11/23 08:32:48;;;;;;;11.43;3.30;;;2.20;98.20;1.50;94647.00;;;;5093313;28;20196;-61
2022/11/23 08:35:14;;;;;;;3.67;3.37;;;2.40;98.20;1.60;94640.00;;;;5093457;28;20267;-61
2022/11/23 08:37:40;;;;;;;4.17;2.40;;;2.50;98.30;1.60;94636.00;;;;5075435;28;20201;-61
2022/11/23 08:40:10;;;;;;;3.17;2.90;;;2.40;96.90;1.60;94632.00;;;;5093595;28;20254;-60
2022/11/23 08:42:36;;;;;;;1.20;1.20;;;2.50;97.90;1.70;94636.00;;;;5093033;28;20233;-60
2022/11/23 08:45:04;;;;;;;1.30;1.30;;;2.60;97.80;1.80;94635.00;;;;5093329;28;20203;-60
2022/11/23 08:47:31;;;;;;;1.33;1.27;;;2.70;97.90;1.80;94635.00;;;;5093080;28;20221;-60
2022/11/23 08:49:57;;;;;;;1.47;1.37;;;2.70;97.40;1.80;94645.00;;;;5093153;28;20202;-60
2022/11/23 08:52:26;;;;;;;0.77;0.77;;;2.70;98.50;2.00;94638.00;;;;5093404;28;20199;-62
2022/11/23 08:54:52;;;;;;;10.43;3.33;;;2.80;99.70;2.10;94639.00;;;;5093296;28;20202;-59
2022/11/23 08:57:22;;;;;;;4.20;3.17;;;2.90;99.00;2.10;94648.00;;;;5093185;28;20263;-60
2022/11/23 08:59:48;;;;;;;1.90;1.80;;;3.00;99.90;2.30;94645.00;;;;5093122;28;20214;-60
2022/11/23 09:02:15;;;;;;;3.07;2.07;;;3.10;99.40;2.40;94635.00;;;;5092961;28;20205;-60
2022/11/23 09:04:42;;;;;;;2.10;2.00;;;3.20;99.30;2.60;94630.00;;;;5091933;28;20279;-60
2022/11/23 09:07:08;;;;;;;1.73;1.63;;;3.40;99.40;2.90;94637.00;;;;5093083;28;20210;-62
2022/11/23 09:09:35;;;;;;;0.63;0.63;;;3.60;99.00;3.00;94631.00;;;;5093009;28;20198;-60
2022/11/23 09:12:01;;;;;;;0.97;0.97;;;3.80;98.10;3.00;94632.00;;;;5092789;28;20538;-60
2022/11/23 09:14:29;;;;;;;13.13;1.80;;;3.80;97.80;2.90;94641.00;;;;5092975;28;20278;-59
2022/11/23 09:17:00;;;;;;;1.60;1.13;;;3.70;96.90;2.80;94640.00;;;;5075059;28;20223;-60
2022/11/23 09:19:29;;;;;;;0.80;0.80;;;3.70;97.70;2.90;94643.00;;;;5092904;28;20209;-60
2022/11/23 09:21:56;;;;;;;0.70;0.70;;;3.70;97.90;3.10;94638.00;;;;5092690;28;20251;-62
2022/11/23 09:24:24;;;;;;;0.73;0.73;;;3.90;98.90;3.40;94652.00;;;;5092849;28;20240;-64
2022/11/23 09:26:51;;;;;;;0.77;0.77;;;4.10;99.40;3.60;94650.00;;;;5092930;28;20194;-62
2022/11/23 09:29:17;;;;;;;1.07;0.90;;;4.30;96.70;3.60;94639.00;;;;5095920;28;20267;-60
2022/11/23 09:31:44;;;;;;;1.30;1.20;;;4.70;97.10;3.70;94651.00;;;;5096455;28;20198;-59
2022/11/23 09:34:12;;;;;;;0.93;0.93;;;4.60;96.90;3.90;94653.00;;;;5096163;28;20211;-60
2022/11/23 09:36:38;;;;;;;0.93;0.93;;;4.60;97.50;4.10;94603.00;;;;5096463;28;20191;-68
2022/11/23 09:39:05;;;;;;;2.23;1.90;;;5.00;96.60;4.40;94656.00;;;;5096123;28;20214;-63
2022/11/23 09:42:04;;;;;;;3.67;1.73;;;5.20;94.40;4.60;94650.00;;;;5096596;28;20223;-65
2022/11/23 09:44:51;;;;;;;0.60;0.60;;;5.20;95.00;4.60;94656.00;;;;5096507;28;20623;-64
2022/11/23 09:47:44;;;;;;;0.93;0.93;;;5.40;94.00;4.80;94650.00;;;;5096738;28;20321;-64
2022/11/23 09:50:21;;;;;;;0.70;0.70;;;5.50;93.70;4.90;94650.00;;;;5096345;28;20198;-66
2022/11/23 09:52:50;;;;;;;1.17;1.17;;;5.60;92.00;4.90;94640.00;;;;5096113;28;20191;-63
2022/11/23 09:55:28;;;;;;;0.60;0.60;;;5.70;91.00;4.90;94646.00;;;;5095916;28;20198;-64
2022/11/23 09:58:03;;;;;;;0.80;0.80;;;5.60;91.10;5.00;94636.00;;;;5096038;28;20818;-65
2022/11/23 10:00:41;;;;;;;1.67;1.57;;;5.80;88.50;5.00;94644.00;;;;5095144;28;20526;-64
2022/11/23 10:03:14;;;;;;;0.80;0.80;;;5.80;89.40;5.00;94642.00;;;;5096134;28;20226;-65
2022/11/23 10:06:00;;;;;;;0.90;0.90;;;5.70;90.50;4.90;94639.00;;;;5095838;28;20204;-63
2022/11/23 10:08:43;;;;;;;1.33;1.23;;;5.40;90.60;4.50;94646.00;;;;5095840;28;20271;-63
2022/11/23 10:11:42;;;;;;;0.60;0.60;;;5.40;90.80;4.80;94644.00;;;;5095846;28;20226;-63
2022/11/23 10:14:28;;;;;;;0.80;0.80;;;5.70;89.90;4.90;94644.00;;;;5095689;28;20218;-64
2022/11/23 10:17:03;;;;;;;0.93;0.93;;;5.50;89.50;4.80;94635.00;;;;5078069;28;20206;-63
2022/11/23 10:19:52;;;;;;;3.97;1.10;;;5.50;90.10;4.80;94638.00;;;;5095377;28;20195;-61
2022/11/23 10:22:30;;;;;;;0.87;0.87;;;5.50;90.30;5.00;94642.00;;;;5095361;28;20695;-64
2022/11/23 10:24:59;;;;;;;0.60;0.60;;;5.80;90.50;5.10;94632.00;;;;5095518;28;20642;-62
2022/11/23 10:27:30;;;;;;;0.87;0.87;;;5.80;91.10;5.30;94626.00;;;;5095358;28;20203;-62
2022/11/23 10:29:59;;;;;;;1.00;1.00;;;6.00;91.80;5.40;94632.00;;;;5095299;28;20266;-63
2022/11/23 10:32:34;;;;;;;5.97;1.50;;;6.30;90.90;5.70;94637.00;;;;5095216;28;20215;-67
2022/11/23 10:35:12;;;;;;;1.33;1.27;;;6.30;90.10;5.90;94632.00;;;;5095284;28;20654;-63
2022/11/23 10:37:40;;;;;;;0.70;0.70;;;6.50;89.20;5.90;94591.00;;;;5077553;28;20230;-63
2022/11/23 10:40:17;;;;;;;0.53;0.53;;;6.60;87.30;6.00;94630.00;;;;5094118;28;20221;-62
2022/11/23 10:42:51;;;;;;;1.30;1.20;;;6.70;87.10;6.20;94620.00;;;;5095122;28;20561;-64
2022/11/23 10:45:23;;;;;;;1.00;1.00;;;6.80;86.80;6.30;94622.00;;;;5094938;28;20502;-63
2022/11/23 10:47:53;;;;;;;0.80;0.80;;;7.00;85.70;6.40;94619.00;;;;5094859;28;20202;-62
2022/11/23 10:50:28;;;;;;;1.33;1.27;;;7.00;85.30;6.70;94611.00;;;;5095019;28;20199;-61
2022/11/23 10:52:58;;;;;;;0.90;0.90;;;;;7.00;94620.00;;;;5094899;28;20340;-61
2022/11/23 10:55:31;;;;;;;0.80;0.80;;;7.40;83.10;7.20;94610.00;;;;5094741;28;20222;-60
2022/11/23 10:58:00;;;;;;;1.57;1.23;;;7.60;80.30;7.40;94593.00;;;;5094662;28;20254;-62
2022/11/23 11:00:28;;;;;;;1.27;1.17;;;7.80;80.10;7.80;94584.00;;;;5094648;28;20232;-63
2022/11/23 11:02:57;;;;;;;5.40;2.07;;;8.10;78.10;8.30;94577.00;;;;5094619;28;20222;-62
2022/11/23 11:05:32;;;;;;;1.90;1.80;;;8.50;76.50;9.00;94577.00;;;;5094720;28;20228;-61
2022/11/23 11:08:02;;;;;;;0.70;0.70;;;8.90;76.60;9.20;94576.00;;;;5094638;28;20217;-62
2022/11/23 11:10:41;;;;;;;0.80;0.80;;;9.40;70.80;9.90;94572.00;;;;5094727;28;20197;-61
2022/11/23 11:13:25;;;;;;;0.73;0.73;;;9.80;68.80;10.10;94561.00;;;;5094543;28;20193;-61
2022/11/23 11:15:57;;;;;;;0.80;0.80;;;10.00;60.60;10.40;94548.00;;;;5094625;28;20217;-62
2022/11/23 11:18:30;;;;;;;0.97;0.97;;;10.20;57.60;10.90;94550.00;;;;5094531;28;20231;-62